KMUO/MUO METAR and TAF weather

Enter ICAO airport designator
Station Type Date Time Source
KMUO METAR 2020/07/11 00:19 UTC NOAA

KMUO 110019Z AUTO 34011G19KT 10SM CLR 31/02 A3011 RMK AO2 WSHFT 15 SLP172 $


Station Type Date Time Source
KMUO Decoded METAR 2020/07/11 00:19 UTC NOAA

Mountain Home Air Force Base, ID, United States (KMUO) 43-03N 115-52W
Jul 10, 2020 - 08:19 PM EDT / 2020.07.11 0019 UTC
Wind: from the NNW (340 degrees) at 13 MPH (11 KT) gusting to 22 MPH (19 KT):0
Visibility: 10 mile(s):0
Sky conditions: clear
Temperature: 87 F (31 C)
Dew Point: 35 F (2 C)
Relative Humidity: 15%
Pressure (altimeter): 30.11 in. Hg (1019 hPa)
ob: KMUO 110019Z AUTO 34011G19KT 10SM CLR 31/02 A3011 RMK AO2 WSHFT 15 SLP172
cycle: 0

Station Type Date Time Source
KMUO TAF 2020/07/10 23:58 UTC NOAA

TAF
AMD KMUO 102350Z 1023/1124 32010G15KT 9999 FEW080 QNH3007INS
TEMPO 1023/1102 31015G20KT
BECMG 1102/1103 32009KT 9999 FEW080 QNH3006INS
BECMG 1105/1106 VRB06KT 9999 FEW080 QNH3007INS
BECMG 1114/1115 32009KT 9999 SCT160 QNH2987INS TX32/1023Z TN14/1113Z

Example: see airport list